Time;durP1;ratioP1;P1;durP2;ratioP2;P2;SDS_P1;SDS_P2;PMS_P1;PMS_P2;Temp;Humidity;BMP_temperature;BMP_pressure;BME280_temperature;BME280_humidity;BME280_pressure;Samples;Min_cycle;Max_cycle;Signal;HPM_P1;HPM_P2
2021/12/13 00:00:49;;;;;;;;;;;;;;;4.55;100.00;100899.75;4998279;28;20033;-81
2021/12/13 00:03:26;;;;;;;10.50;1.70;;;;;;;4.50;100.00;100885.13;5028756;28;20000;-81
2021/12/13 00:05:56;;;;;;;10.88;2.08;;;;;;;4.47;100.00;100904.88;5023996;28;20064;-82
2021/12/13 00:08:34;;;;;;;9.60;1.95;;;;;;;4.37;100.00;100896.84;5012255;28;20126;-83
2021/12/13 00:11:08;;;;;;;9.95;2.15;;;;;;;4.34;100.00;100906.91;5015224;28;20101;-83
2021/12/13 00:13:40;;;;;;;8.40;1.92;;;;;;;4.27;100.00;100903.94;5011632;28;20029;-83
2021/12/13 00:16:07;;;;;;;13.63;2.15;;;;;;;4.25;100.00;100905.03;5045673;28;20083;-83
2021/12/13 00:18:38;;;;;;;7.60;1.60;;;;;;;4.24;100.00;100922.84;5018012;28;20035;-83
2021/12/13 00:21:12;;;;;;;10.45;2.13;;;;;;;4.08;100.00;100902.00;5001009;28;20058;-82
2021/12/13 00:23:54;;;;;;;8.93;2.58;;;;;;;4.18;100.00;100915.34;4999175;28;20128;-82
2021/12/13 00:26:23;;;;;;;11.52;1.65;;;;;;;4.15;100.00;100924.47;5014777;28;20598;-83
2021/12/13 00:28:49;;;;;;;7.03;1.88;;;;;;;4.00;100.00;100930.25;5014034;28;20078;-83
2021/12/13 00:31:25;;;;;;;12.80;2.78;;;;;;;3.99;100.00;100921.41;5030380;28;20052;-83
2021/12/13 00:34:09;;;;;;;7.35;2.60;;;;;;;4.11;100.00;100933.69;4994247;28;20536;-82
2021/12/13 00:36:41;;;;;;;10.75;2.28;;;;;;;4.16;100.00;100935.97;5025919;28;20118;-82
2021/12/13 00:39:18;;;;;;;10.95;2.20;;;;;;;3.96;100.00;100909.19;5025334;28;20036;-83
2021/12/13 00:41:47;;;;;;;16.73;2.20;;;;;;;4.24;100.00;100937.97;5028326;28;20056;-83
2021/12/13 00:44:17;;;;;;;9.70;2.00;;;;;;;4.33;100.00;100935.34;5006116;28;20022;-83
2021/12/13 00:46:44;;;;;;;10.00;1.90;;;;;;;4.33;100.00;100948.66;5028074;28;20412;-83
2021/12/13 00:49:11;;;;;;;6.57;1.40;;;;;;;4.31;100.00;100949.75;5022217;28;20030;-83
2021/12/13 00:51:44;;;;;;;14.27;2.17;;;;;;;4.30;100.00;100943.59;4995577;28;20025;-82
2021/12/13 00:54:17;;;;;;;2.45;1.08;;;;;;;4.28;100.00;100945.53;5014886;28;20052;-83
2021/12/13 00:56:49;;;;;;;9.55;1.70;;;;;;;4.32;100.00;100957.63;5013773;28;20024;-82
2021/12/13 00:59:30;;;;;;;13.00;1.70;;;;;;;4.24;100.00;100953.94;4999758;28;20037;-84
2021/12/13 01:02:14;;;;;;;7.78;1.42;;;;;;;4.23;100.00;100969.03;5030175;28;20574;-84
2021/12/13 01:05:04;;;;;;;13.95;1.58;;;;;;;4.26;100.00;100973.25;5014976;28;20037;-83
2021/12/13 01:07:33;;;;;;;9.73;1.77;;;;;;;4.13;100.00;100962.84;4994612;28;20029;-83
2021/12/13 01:10:36;;;;;;;8.32;1.73;;;;;;;4.06;100.00;100964.31;5022977;28;20030;-81
2021/12/13 01:13:03;;;;;;;10.13;2.67;;;;;;;4.03;100.00;100965.41;5020799;28;20577;-83
2021/12/13 01:15:40;;;;;;;15.43;3.75;;;;;;;4.00;100.00;100968.34;5011569;28;20120;-83
2021/12/13 01:18:28;;;;;;;14.07;4.05;;;;;;;4.10;100.00;100992.34;4994062;28;20044;-82
2021/12/13 01:21:03;;;;;;;11.60;3.80;;;;;;;4.00;100.00;100999.44;5030816;28;20029;-82
2021/12/13 01:28:46;;;;;;;15.27;3.45;;;;;;;3.69;100.00;100992.13;5030561;28;20356;-82
2021/12/13 01:31:15;;;;;;;13.75;3.45;;;;;;;3.59;100.00;100985.88;4997072;28;20029;-82
2021/12/13 01:33:45;;;;;;;13.13;2.78;;;;;;;3.65;100.00;101006.69;5025239;28;20026;-82
2021/12/13 01:36:16;;;;;;;13.48;2.88;;;;;;;3.66;100.00;101011.00;4995806;28;20108;-82
2021/12/13 01:38:51;;;;;;;10.38;3.35;;;;;;;3.71;100.00;101022.13;5026890;28;20036;-82
2021/12/13 01:41:55;;;;;;;14.90;3.00;;;;;;;3.80;100.00;101017.84;5012727;28;20382;-82
2021/12/13 01:44:25;;;;;;;13.68;3.58;;;;;;;3.80;100.00;101017.00;5013396;28;20026;-82
2021/12/13 01:47:02;;;;;;;11.10;2.08;;;;;;;3.86;100.00;101024.47;5004052;28;20029;-82
2021/12/13 01:49:34;;;;;;;7.70;1.80;;;;;;;3.85;100.00;101018.31;5025378;28;20052;-82
2021/12/13 01:52:00;;;;;;;8.73;1.83;;;;;;;3.79;100.00;101007.34;5043923;28;20342;-82
2021/12/13 01:54:27;;;;;;;5.95;1.80;;;;;;;3.84;100.00;101014.00;5005703;28;20091;-82
2021/12/13 01:57:09;;;;;;;7.45;1.77;;;;;;;3.80;100.00;101015.19;4992274;28;20033;-82
2021/12/13 02:02:23;;;;;;;11.05;2.67;;;;;;;3.72;100.00;101021.13;5010103;28;20065;-82
2021/12/13 02:05:03;;;;;;;10.40;1.80;;;;;;;3.73;100.00;101030.81;5027241;28;20123;-82
2021/12/13 02:07:46;;;;;;;7.05;2.00;;;;;;;3.64;100.00;101028.06;5011046;28;20120;-82
2021/12/13 02:10:32;;;;;;;10.63;2.30;;;;;;;3.60;100.00;101040.78;5011913;28;20033;-82
2021/12/13 02:13:04;;;;;;;5.50;1.90;;;;;;;3.60;100.00;101037.25;5018934;28;20191;-82
2021/12/13 02:18:21;;;;;;;14.32;1.92;;;;;;;3.71;100.00;101042.56;5015350;28;20116;-82
2021/12/13 02:20:57;;;;;;;6.28;1.65;;;;;;;3.68;100.00;101037.50;5022557;28;20075;-82
2021/12/13 02:23:25;;;;;;;15.07;2.08;;;;;;;3.82;100.00;101047.00;5019058;28;20359;-82
2021/12/13 02:25:52;;;;;;;19.42;2.47;;;;;;;3.83;100.00;101041.53;5033979;28;20024;-82
2021/12/13 02:28:25;;;;;;;8.05;1.80;;;;;;;3.85;100.00;101039.59;5022708;28;20059;-82
2021/12/13 02:30:56;;;;;;;10.90;1.50;;;;;;;3.95;100.00;101037.88;5016926;28;20454;-82
2021/12/13 02:33:30;;;;;;;8.80;2.03;;;;;;;3.99;100.00;101041.13;4995492;28;20026;-82
2021/12/13 02:36:18;;;;;;;11.93;2.33;;;;;;;4.07;100.00;101053.81;4999795;28;20445;-82
2021/12/13 02:38:46;;;;;;;13.30;3.33;;;;;;;4.05;100.00;101050.41;5012508;28;20017;-82
2021/12/13 02:41:16;;;;;;;8.20;2.13;;;;;;;4.08;100.00;101045.72;5028978;28;20029;-82
2021/12/13 02:43:47;;;;;;;8.98;1.48;;;;;;;4.10;100.00;101050.88;4997111;28;20104;-82
2021/12/13 02:46:13;;;;;;;8.30;2.03;;;;;;;4.14;100.00;101057.66;5029765;28;20475;-82
2021/12/13 02:48:40;;;;;;;9.93;2.22;;;;;;;4.24;100.00;101066.56;4997341;28;20087;-82
2021/12/13 02:51:09;;;;;;;15.68;3.00;;;;;;;4.19;100.00;101060.78;5025284;28;20033;-82
2021/12/13 02:53:40;;;;;;;10.98;2.13;;;;;;;4.07;100.00;101048.47;5009538;28;20530;-82
2021/12/13 02:56:06;;;;;;;8.48;2.00;;;;;;;4.22;100.00;101073.84;5025619;28;20053;-82
2021/12/13 02:58:34;;;;;;;8.88;1.73;;;;;;;4.29;100.00;101085.66;5010254;28;20498;-82
2021/12/13 03:01:07;;;;;;;12.40;2.10;;;;;;;4.32;100.00;101085.41;5000405;28;20475;-82
2021/12/13 03:03:38;;;;;;;6.55;1.67;;;;;;;4.34;100.00;101083.47;4995076;28;20347;-82
2021/12/13 03:06:06;;;;;;;13.55;2.47;;;;;;;4.35;100.00;101084.31;5013177;28;20096;-82
2021/12/13 03:08:39;;;;;;;10.55;1.98;;;;;;;4.30;100.00;101086.50;5009005;28;20505;-82
2021/12/13 03:11:12;;;;;;;10.90;2.08;;;;;;;4.28;100.00;101102.59;4994757;28;20064;-83
2021/12/13 03:13:38;;;;;;;11.52;2.40;;;;;;;4.12;100.00;101091.53;5012103;28;20356;-82
2021/12/13 03:16:29;;;;;;;13.60;1.92;;;;;;;4.22;100.00;101121.75;5019836;28;20032;-82
2021/12/13 03:19:34;;;;;;;11.05;2.25;;;;;;;4.18;100.00;101122.94;5029636;28;20108;-83
2021/12/13 03:22:03;;;;;;;10.60;2.05;;;;;;;4.22;100.00;101111.09;5009361;28;20470;-82
2021/12/13 03:24:50;;;;;;;15.13;2.42;;;;;;;4.20;100.00;101110.38;5013635;28;20033;-83
2021/12/13 03:27:53;;;;;;;14.30;1.95;;;;;;;4.25;100.00;101116.16;5030617;28;20138;-82
2021/12/13 03:30:29;;;;;;;13.38;2.13;;;;;;;4.23;100.00;101117.25;5031170;28;20033;-82
2021/12/13 03:32:58;;;;;;;14.60;1.77;;;;;;;4.19;100.00;101106.88;5014735;28;20454;-82
2021/12/13 03:35:40;;;;;;;9.18;1.88;;;;;;;4.07;100.00;101102.53;4995496;28;20021;-82
2021/12/13 03:38:16;;;;;;;8.23;2.00;;;;;;;3.99;100.00;101101.47;4994563;28;20031;-83
2021/12/13 03:40:43;;;;;;;12.73;2.25;;;;;;;4.04;100.00;101124.09;5011504;28;20025;-82
2021/12/13 03:43:15;;;;;;;13.93;2.13;;;;;;;3.99;100.00;101128.09;5014788;28;20498;-82
2021/12/13 03:45:47;;;;;;;12.82;2.35;;;;;;;4.00;100.00;101122.66;5010854;28;20534;-82
2021/12/13 03:48:15;;;;;;;6.82;1.85;;;;;;;3.96;100.00;101123.88;5025424;28;20025;-82
2021/12/13 03:50:44;;;;;;;15.18;2.47;;;;;;;3.93;100.00;101124.13;5000047;28;20053;-82
2021/12/13 03:53:14;;;;;;;8.73;2.40;;;;;;;3.95;100.00;101115.03;5016204;28;20444;-82
2021/12/13 03:55:43;;;;;;;10.32;1.80;;;;;;;3.99;100.00;101115.63;5003379;28;20120;-82
2021/12/13 03:58:12;;;;;;;11.18;2.35;;;;;;;4.02;100.00;101111.88;4999121;28;20073;-82
2021/12/13 04:00:43;;;;;;;7.95;1.40;;;;;;;4.04;100.00;101113.44;5009680;28;20025;-82
2021/12/13 04:03:12;;;;;;;9.20;1.77;;;;;;;4.04;100.00;101123.25;5029125;28;20061;-82
2021/12/13 04:05:38;;;;;;;12.60;2.35;;;;;;;3.90;100.00;101119.88;4996305;28;20104;-82
2021/12/13 04:08:06;;;;;;;15.80;3.42;;;;;;;3.92;100.00;101127.75;5012484;28;20116;-82
2021/12/13 04:10:37;;;;;;;6.10;2.63;;;;;;;3.78;100.00;101120.84;5015459;28;20033;-82
2021/12/13 04:13:11;;;;;;;9.63;3.47;;;;;;;3.81;100.00;101131.28;5003595;28;20083;-82
2021/12/13 04:16:05;;;;;;;9.88;2.78;;;;;;;3.80;100.00;101132.22;5029033;28;20029;-82
2021/12/13 04:19:06;;;;;;;11.68;3.42;;;;;;;3.72;100.00;101132.84;5011730;28;20135;-82
2021/12/13 04:21:34;;;;;;;14.20;3.40;;;;;;;3.66;100.00;101135.16;5025510;28;20045;-82
2021/12/13 04:24:04;;;;;;;8.07;2.80;;;;;;;3.64;100.00;101129.94;5013993;28;20025;-82
2021/12/13 04:26:31;;;;;;;8.38;2.22;;;;;;;3.66;100.00;101137.81;5002359;28;20033;-82
2021/12/13 04:28:59;;;;;;;5.88;2.13;;;;;;;3.61;100.00;101140.00;5028540;28;20037;-82
2021/12/13 04:31:32;;;;;;;13.68;2.30;;;;;;;3.58;100.00;101142.91;5019282;28;20034;-82
2021/12/13 04:34:01;;;;;;;13.43;2.77;;;;;;;3.44;100.00;101134.19;4995333;28;20058;-83
2021/12/13 04:36:28;;;;;;;8.90;1.75;;;;;;;3.44;100.00;101134.19;5011379;28;20021;-82
2021/12/13 04:38:58;;;;;;;13.75;3.13;;;;;;;3.54;100.00;101152.91;4999134;28;20025;-82
2021/12/13 04:41:50;;;;;;;9.00;2.90;;;;;;;3.49;100.00;101147.09;5023397;28;20029;-82
2021/12/13 04:44:21;;;;;;;7.50;1.98;;;;;;;3.53;100.00;101156.53;5014026;28;20160;-82
2021/12/13 04:46:51;;;;;;;7.03;2.13;;;;;;;3.41;100.00;101141.53;5022692;28;20046;-82
2021/12/13 04:49:20;;;;;;;5.45;2.17;;;;;;;3.50;100.00;101162.94;5015040;28;20034;-82
2021/12/13 04:51:59;;;;;;;9.90;2.03;;;;;;;3.49;100.00;101168.38;5007190;28;20030;-83
2021/12/13 04:54:26;;;;;;;3.55;1.58;;;;;;;3.46;100.00;101165.97;5011563;28;20025;-82
2021/12/13 04:56:54;;;;;;;6.32;1.65;;;;;;;3.41;100.00;101162.81;5010496;28;20029;-82
2021/12/13 04:59:20;;;;;;;13.73;1.95;;;;;;;3.41;100.00;101170.78;4996008;28;20087;-82
2021/12/13 05:01:50;;;;;;;8.40;1.95;;;;;;;3.30;100.00;101167.16;5022840;28;20037;-82
2021/12/13 05:04:16;;;;;;;4.93;1.65;;;;;;;3.27;100.00;101177.19;4990277;28;20038;-82
2021/12/13 05:06:44;;;;;;;5.47;1.52;;;;;;;3.25;100.00;101182.59;5006884;28;20029;-82
2021/12/13 05:09:13;;;;;;;7.40;2.15;;;;;;;3.22;100.00;101182.00;4992392;28;20033;-83
2021/12/13 05:11:44;;;;;;;6.15;1.67;;;;;;;3.20;100.00;101184.78;5010975;28;20466;-82
2021/12/13 05:14:12;;;;;;;4.20;1.63;;;;;;;3.23;100.00;101186.38;5014052;28;20189;-82
2021/12/13 05:16:53;;;;;;;7.38;2.22;;;;;;;3.26;100.00;101188.78;4989835;28;20046;-82
2021/12/13 05:19:29;;;;;;;11.82;2.25;;;;;;;3.20;100.00;101190.09;5028604;28;20036;-82
2021/12/13 05:21:58;;;;;;;7.75;1.65;;;;;;;3.23;100.00;101187.22;5026391;28;20029;-82
2021/12/13 05:24:26;;;;;;;4.50;1.45;;;;;;;3.14;100.00;101166.63;5019160;28;21670;-82
2021/12/13 05:26:59;;;;;;;9.35;1.63;;;;;;;3.26;100.00;101194.09;5027882;28;20079;-82
2021/12/13 05:29:32;;;;;;;7.80;2.07;;;;;;;3.24;100.00;101196.03;5014864;28;20025;-83
2021/12/13 05:32:15;;;;;;;6.93;2.20;;;;;;;3.15;100.00;101202.03;4989711;28;20336;-82
2021/12/13 05:35:00;;;;;;;3.88;1.27;;;;;;;3.13;100.00;101196.00;5028291;28;20109;-82
2021/12/13 05:37:44;;;;;;;12.40;1.70;;;;;;;3.17;100.00;101194.78;5022842;28;20176;-82
2021/12/13 05:40:17;;;;;;;2.97;1.25;;;;;;;3.16;100.00;101206.38;5021595;28;20025;-82
2021/12/13 05:42:46;;;;;;;4.38;1.92;;;;;;;3.17;100.00;101203.59;5013806;28;20128;-82
2021/12/13 05:45:20;;;;;;;6.07;2.10;;;;;;;3.12;100.00;101196.94;5025751;28;20167;-82
2021/12/13 05:48:03;;;;;;;4.10;1.70;;;;;;;3.01;100.00;101193.28;5029059;28;20025;-82
2021/12/13 05:50:43;;;;;;;8.15;2.55;;;;;;;3.01;100.00;101195.09;5011050;28;20057;-82
2021/12/13 05:53:21;;;;;;;8.65;1.88;;;;;;;2.95;100.00;101166.38;5004485;28;20037;-82
2021/12/13 05:55:52;;;;;;;5.47;1.20;;;;;;;2.98;100.00;101182.91;4996663;28;20195;-83
2021/12/13 05:58:41;;;;;;;6.30;1.52;;;;;;;3.04;100.00;101208.16;5022453;28;20136;-82
2021/12/13 06:01:18;;;;;;;3.58;1.33;;;;;;;2.79;100.00;101177.28;5026151;28;20056;-82
2021/12/13 06:04:13;;;;;;;10.75;1.65;;;;;;;3.00;100.00;101196.09;5015293;28;20018;-82
2021/12/13 06:06:48;;;;;;;7.80;1.75;;;;;;;2.87;100.00;101201.47;5012445;28;20044;-82
2021/12/13 06:09:46;;;;;;;6.40;1.10;;;;;;;2.77;100.00;101205.75;5014176;28;20018;-81
2021/12/13 06:12:31;;;;;;;7.85;1.50;;;;;;;2.48;100.00;101195.50;5010223;28;20467;-81
2021/12/13 06:15:15;;;;;;;5.47;1.30;;;;;;;2.51;100.00;101199.72;5037890;28;20039;-82
2021/12/13 06:17:44;;;;;;;5.22;1.33;;;;;;;2.36;100.00;101188.44;5033834;28;20021;-81
2021/12/13 06:20:15;;;;;;;8.02;1.60;;;;;;;2.33;100.00;101207.22;5010154;28;20034;-82
2021/12/13 06:22:41;;;;;;;10.40;1.48;;;;;;;2.30;100.00;101197.72;4996906;28;20061;-81
2021/12/13 06:25:17;;;;;;;4.47;1.42;;;;;;;2.25;100.00;101193.66;5011997;28;20522;-81
2021/12/13 06:27:48;;;;;;;5.75;1.52;;;;;;;2.21;100.00;101203.66;5012900;28;20025;-82
2021/12/13 06:30:24;;;;;;;6.40;1.55;;;;;;;2.25;100.00;101206.94;5012141;28;20030;-82
2021/12/13 06:33:19;;;;;;;2.03;1.10;;;;;;;2.18;100.00;101193.28;4996452;28;20132;-82
2021/12/13 06:35:57;;;;;;;4.85;1.15;;;;;;;2.16;100.00;101224.38;5025015;28;20547;-81
2021/12/13 06:38:29;;;;;;;4.60;1.17;;;;;;;1.86;100.00;101215.00;5010861;28;20036;-81
2021/12/13 06:40:59;;;;;;;6.07;1.60;;;;;;;1.78;100.00;101224.47;5026338;28;20029;-82
2021/12/13 06:43:58;;;;;;;5.43;1.17;;;;;;;1.76;100.00;101224.56;5008861;28;20390;-82
2021/12/13 06:46:23;;;;;;;8.02;1.30;;;;;;;1.59;100.00;101216.91;5011044;28;20045;-82
2021/12/13 06:49:10;;;;;;;3.95;1.13;;;;;;;1.61;100.00;101244.16;5021677;28;20033;-82
2021/12/13 06:51:52;;;;;;;7.93;1.42;;;;;;;1.41;100.00;101246.41;5038207;28;20124;-82
2021/12/13 06:54:46;;;;;;;5.18;1.23;;;;;;;1.35;100.00;101254.78;5024762;28;20073;-82
2021/12/13 06:57:12;;;;;;;6.88;2.15;;;;;;;1.38;100.00;101259.84;5015165;28;20056;-81
2021/12/13 06:59:52;;;;;;;39.30;8.30;;;;;;;1.40;100.00;101267.69;5030466;28;20025;-81
2021/12/13 07:02:25;;;;;;;7.38;2.60;;;;;;;1.47;100.00;101268.97;5026411;28;20026;-82
2021/12/13 07:05:04;;;;;;;5.40;1.80;;;;;;;1.51;100.00;101273.13;5009292;28;20059;-81
2021/12/13 07:07:37;;;;;;;3.92;1.40;;;;;;;1.39;100.00;101284.53;5026884;28;20120;-81
2021/12/13 07:10:08;;;;;;;3.45;1.17;;;;;;;1.37;100.00;101300.53;5014540;28;20021;-82
2021/12/13 07:12:44;;;;;;;5.57;1.33;;;;;;;1.20;100.00;101291.06;5032882;28;20144;-82
2021/12/13 07:15:25;;;;;;;2.80;1.20;;;;;;;1.18;100.00;101303.56;5014841;28;20029;-81
2021/12/13 07:18:28;;;;;;;4.60;1.20;;;;;;;1.21;100.00;101307.81;5005371;28;20029;-81
2021/12/13 07:20:58;;;;;;;3.78;0.90;;;;;;;1.17;100.00;101308.97;5008334;28;20045;-81
2021/12/13 07:23:24;;;;;;;1.77;1.00;;;;;;;1.18;100.00;101306.22;5011623;28;20057;-82
2021/12/13 07:25:52;;;;;;;3.35;1.35;;;;;;;1.32;100.00;101315.88;5016861;28;20477;-82
2021/12/13 07:28:36;;;;;;;7.70;1.20;;;;;;;1.25;100.00;101309.31;5016639;28;20068;-81
2021/12/13 07:31:07;;;;;;;1.75;1.15;;;;;;;1.29;100.00;101321.41;4999290;28;20036;-81
2021/12/13 07:33:44;;;;;;;2.58;1.00;;;;;;;1.29;100.00;101327.53;5015944;28;20116;-81
2021/12/13 07:36:19;;;;;;;3.75;1.15;;;;;;;1.34;100.00;101323.75;5013910;28;20382;-81
2021/12/13 07:38:49;;;;;;;2.83;1.00;;;;;;;1.41;100.00;101325.03;5032883;28;20029;-81
2021/12/13 07:41:15;;;;;;;2.28;0.82;;;;;;;1.35;100.00;101321.00;5015827;28;20033;-81
2021/12/13 07:43:43;;;;;;;4.57;1.15;;;;;;;1.40;100.00;101328.63;5009513;28;20026;-81
2021/12/13 07:46:29;;;;;;;7.78;1.65;;;;;;;1.48;100.00;101335.13;5032244;28;20028;-82
2021/12/13 07:49:08;;;;;;;2.65;1.00;;;;;;;1.52;100.00;101344.56;5032573;28;20037;-81
2021/12/13 07:51:47;;;;;;;7.93;1.10;;;;;;;1.56;100.00;101339.88;5029634;28;20458;-81
2021/12/13 07:54:15;;;;;;;6.25;1.30;;;;;;;1.56;100.00;101320.50;5042988;28;20030;-82
2021/12/13 07:56:51;;;;;;;3.17;1.17;;;;;;;1.68;100.00;101319.66;5027973;28;20120;-82
2021/12/13 07:59:31;;;;;;;1.83;1.02;;;;;;;1.83;100.00;101336.34;5032270;28;20033;-82
2021/12/13 08:02:22;;;;;;;5.63;1.83;;;;;;;1.84;100.00;101338.03;5015630;28;20044;-82
2021/12/13 08:04:52;;;;;;;9.05;1.52;;;;;;;1.91;100.00;101340.16;5031110;28;20095;-82
2021/12/13 08:07:22;;;;;;;5.30;1.80;;;;;;;1.98;100.00;101349.41;4999257;28;20029;-82
2021/12/13 08:09:58;;;;;;;3.20;1.42;;;;;;;2.01;100.00;101350.97;5030482;28;20025;-82
2021/12/13 08:12:23;;;;;;;8.75;1.27;;;;;;;1.97;100.00;101350.34;5016343;28;20313;-81
2021/12/13 08:14:53;;;;;;;1.38;0.90;;;;;;;1.91;100.00;101344.63;5031203;28;20037;-82
2021/12/13 08:17:31;;;;;;;5.43;1.70;;;;;;;1.93;100.00;101354.16;5015120;28;20033;-82
2021/12/13 08:19:59;;;;;;;7.35;1.73;;;;;;;1.80;100.00;101341.84;5030624;28;20033;-82
2021/12/13 08:22:28;;;;;;;5.93;1.48;;;;;;;1.88;100.00;101366.91;5014999;28;20044;-82
2021/12/13 08:25:04;;;;;;;4.15;1.40;;;;;;;1.86;100.00;101362.66;5026147;28;20359;-81
2021/12/13 08:27:58;;;;;;;5.20;1.65;;;;;;;1.91;100.00;101368.50;4997552;28;20048;-81
2021/12/13 08:30:32;;;;;;;4.78;1.25;;;;;;;1.95;100.00;101364.66;5000715;28;20455;-82
2021/12/13 08:32:59;;;;;;;;;;;;;;;2.01;100.00;101372.19;5011904;28;20057;-82
2021/12/13 08:35:25;;;;;;;4.20;1.25;;;;;;;1.95;100.00;101357.53;5027420;28;19925;-82
2021/12/13 08:37:59;;;;;;;8.02;1.98;;;;;;;2.09;100.00;101361.91;5030404;28;20029;-81
2021/12/13 08:40:28;;;;;;;9.20;2.17;;;;;;;2.13;100.00;101370.50;5046980;28;20044;-82
2021/12/13 08:42:56;;;;;;;9.00;1.58;;;;;;;2.25;100.00;101385.59;5030014;28;20414;-83
2021/12/13 08:45:38;;;;;;;7.82;1.80;;;;;;;2.19;100.00;101373.56;5031518;28;20390;-84
2021/12/13 08:48:12;;;;;;;5.45;1.92;;;;;;;2.24;100.00;101391.81;5013343;28;20143;-83
2021/12/13 08:50:48;;;;;;;6.90;1.73;;;;;;;2.20;100.00;101385.91;5031219;28;20033;-84
2021/12/13 08:53:20;;;;;;;9.20;2.17;;;;;;;2.32;100.00;101394.78;5015166;28;20033;-85
2021/12/13 08:56:20;;;;;;;12.80;2.50;;;;;;;2.40;100.00;101383.66;4992954;28;20065;-82
2021/12/13 08:59:12;;;;;;;3.30;1.67;;;;;;;2.33;100.00;101385.03;5011042;28;20496;-84
2021/12/13 09:01:45;;;;;;;9.60;2.00;;;;;;;2.35;100.00;101378.66;5030891;28;20052;-83
2021/12/13 09:04:23;;;;;;;8.98;2.03;;;;;;;2.39;100.00;101389.91;5026061;28;20029;-84
2021/12/13 09:06:53;;;;;;;11.13;3.08;;;;;;;2.39;100.00;101372.19;4998522;28;20058;-85
2021/12/13 09:09:19;;;;;;;7.22;2.10;;;;;;;2.63;100.00;101382.03;5028318;28;20029;-85
2021/12/13 09:11:56;;;;;;;10.15;1.98;;;;;;;2.74;100.00;101384.75;5014488;28;20049;-85
2021/12/13 09:14:31;;;;;;;11.73;2.70;;;;;;;2.79;100.00;101389.75;5030466;28;20033;-83
2021/12/13 09:17:07;;;;;;;10.85;3.15;;;;;;;2.80;100.00;101391.44;5014935;28;20025;-84
2021/12/13 09:19:48;;;;;;;6.53;2.20;;;;;;;2.85;100.00;101397.28;5027296;28;20037;-85
2021/12/13 09:22:17;;;;;;;12.30;3.42;;;;;;;2.90;100.00;101412.88;5030539;28;20029;-86
2021/12/13 09:24:46;;;;;;;8.13;2.88;;;;;;;2.92;100.00;101410.97;5031000;28;20029;-84
2021/12/13 09:27:14;;;;;;;12.45;3.42;;;;;;;2.95;100.00;101411.59;5031524;28;20079;-83
2021/12/13 09:29:53;;;;;;;7.05;2.25;;;;;;;2.96;100.00;101407.97;5033897;28;20475;-83
2021/12/13 09:32:24;;;;;;;12.73;3.22;;;;;;;2.97;100.00;101414.16;4998170;28;20501;-84
2021/12/13 09:35:18;;;;;;;11.95;2.80;;;;;;;3.03;100.00;101419.84;5014635;28;20465;-85
2021/12/13 09:37:43;;;;;;;7.85;2.70;;;;;;;3.02;100.00;101417.31;5012540;28;20428;-84
2021/12/13 09:40:10;;;;;;;12.85;3.08;;;;;;;3.06;100.00;101422.28;4992079;28;20121;-87
2021/12/13 09:42:48;;;;;;;13.85;2.83;;;;;;;3.05;100.00;101425.91;5002466;28;20401;-85
2021/12/13 09:45:31;;;;;;;10.63;2.80;;;;;;;3.07;100.00;101431.13;5030129;28;20021;-85
2021/12/13 09:47:56;;;;;;;;;;;;;;;3.18;100.00;101449.78;5031149;28;20502;-84
2021/12/13 09:50:29;;;;;;;13.68;3.03;;;;;;;3.16;100.00;101451.69;5029298;28;19913;-85
2021/12/13 09:52:58;;;;;;;15.95;6.50;;;;;;;3.14;100.00;101443.00;5030233;28;20056;-84
2021/12/13 09:55:33;;;;;;;16.15;4.72;;;;;;;3.17;100.00;101458.72;5026735;28;20065;-85
2021/12/13 09:58:16;;;;;;;10.18;4.95;;;;;;;3.17;100.00;101464.03;5002715;28;20029;-84
2021/12/13 10:00:44;;;;;;;14.15;4.10;;;;;;;3.18;100.00;101463.09;5024701;28;20041;-84
2021/12/13 10:03:20;;;;;;;8.38;3.15;;;;;;;3.19;100.00;101446.16;5029597;28;20038;-84
2021/12/13 10:05:49;;;;;;;4.95;2.90;;;;;;;3.26;100.00;101449.25;5010650;28;20124;-84
2021/12/13 10:08:19;;;;;;;5.40;2.35;;;;;;;3.31;100.00;101436.47;5014012;28;20037;-83
2021/12/13 10:10:55;;;;;;;10.23;4.57;;;;;;;3.43;100.00;101442.69;5028403;28;20104;-81
2021/12/13 10:13:27;;;;;;;11.80;4.72;;;;;;;3.53;100.00;101463.16;4995130;28;20041;-83
2021/12/13 10:15:57;;;;;;;14.32;4.60;;;;;;;3.57;100.00;101462.94;5009744;28;20069;-82
2021/12/13 10:18:26;;;;;;;11.07;4.47;;;;;;;3.62;100.00;101468.75;5060584;28;20029;-82
2021/12/13 10:21:06;;;;;;;11.80;4.68;;;;;;;3.65;100.00;101473.84;4999075;28;20037;-82
2021/12/13 10:23:35;;;;;;;12.57;4.82;;;;;;;3.71;100.00;101481.38;5029434;28;20116;-82
2021/12/13 10:26:04;;;;;;;13.38;4.53;;;;;;;3.73;100.00;101472.34;5011188;28;20037;-83
2021/12/13 10:28:52;;;;;;;14.57;3.85;;;;;;;3.80;100.00;101471.88;5012313;28;20435;-82
2021/12/13 10:31:41;;;;;;;10.45;4.28;;;;;;;3.81;100.00;101469.09;5025226;28;20040;-82
2021/12/13 10:34:12;;;;;;;9.43;4.22;;;;;;;3.94;100.00;101469.00;5016686;28;20049;-82
2021/12/13 10:36:42;;;;;;;13.38;3.47;;;;;;;3.99;100.00;101471.34;5028806;28;20654;-82
2021/12/13 10:39:20;;;;;;;16.60;4.10;;;;;;;4.19;100.00;101489.31;5009694;28;20554;-84
2021/12/13 10:41:49;;;;;;;18.10;3.78;;;;;;;4.28;100.00;101493.91;5029091;28;20383;-84
2021/12/13 10:44:25;;;;;;;9.25;3.38;;;;;;;4.32;100.00;101476.75;4996926;28;20103;-83
2021/12/13 10:46:55;;;;;;;14.60;4.15;;;;;;;4.52;100.00;101496.50;5012975;28;20033;-85
2021/12/13 10:49:25;;;;;;;13.00;4.15;;;;;;;4.60;100.00;101503.91;4996992;28;20493;-84
2021/12/13 10:51:58;;;;;;;12.25;3.67;;;;;;;4.71;100.00;101511.94;5027899;28;20025;-86
2021/12/13 10:54:35;;;;;;;14.45;4.05;;;;;;;4.74;100.00;101501.03;5013161;28;20057;-85
2021/12/13 10:57:06;;;;;;;10.13;3.55;;;;;;;4.84;100.00;101509.16;5030578;28;20048;-84
2021/12/13 10:59:35;;;;;;;11.23;3.30;;;;;;;4.94;100.00;101501.28;5027537;28;20040;-84
2021/12/13 11:02:06;;;;;;;10.63;3.40;;;;;;;4.96;100.00;101496.69;5042538;28;20029;-86
2021/12/13 11:04:42;;;;;;;15.02;3.38;;;;;;;5.02;100.00;101498.84;5011740;28;20021;-85
2021/12/13 11:07:10;;;;;;;12.82;4.18;;;;;;;5.07;100.00;101500.19;5010601;28;20029;-84
2021/12/13 11:09:38;;;;;;;14.80;4.40;;;;;;;5.09;100.00;101491.25;5026355;28;20041;-83
2021/12/13 11:12:12;;;;;;;11.93;4.57;;;;;;;5.09;100.00;101488.56;4996536;28;20029;-83
2021/12/13 11:14:41;;;;;;;10.80;3.80;;;;;;;5.10;100.00;101501.75;5028810;28;20044;-83
2021/12/13 11:17:11;;;;;;;11.95;4.18;;;;;;;5.11;100.00;101497.28;4996852;28;20474;-82
2021/12/13 11:19:40;;;;;;;10.43;3.67;;;;;;;5.12;100.00;101494.50;4996653;28;20025;-82
2021/12/13 11:22:10;;;;;;;15.25;4.38;;;;;;;5.20;100.00;101508.06;4994684;28;20033;-83
2021/12/13 11:24:41;;;;;;;12.25;4.45;;;;;;;5.26;100.00;101506.72;5012704;28;20388;-83
2021/12/13 11:27:21;;;;;;;13.55;4.25;;;;;;;5.31;100.00;101503.69;5028840;28;20104;-82
2021/12/13 11:29:48;;;;;;;11.88;3.80;;;;;;;5.29;100.00;101504.66;4995727;28;20026;-83
2021/12/13 11:32:38;;;;;;;10.35;3.80;;;;;;;5.40;100.00;101506.47;5023182;28;20060;-83
2021/12/13 11:35:07;;;;;;;12.65;3.05;;;;;;;5.45;100.00;101506.94;5012643;28;20116;-83
2021/12/13 11:37:51;;;;;;;10.10;2.50;;;;;;;5.64;100.00;101498.28;5002967;28;20372;-83
2021/12/13 11:40:44;;;;;;;6.05;2.10;;;;;;;5.70;100.00;101470.25;5028762;28;20040;-83
2021/12/13 11:43:44;;;;;;;11.00;3.08;;;;;;;6.04;100.00;101495.03;5022644;28;20025;-83
2021/12/13 11:46:34;;;;;;;13.95;3.60;;;;;;;6.25;100.00;101499.53;5012670;28;20192;-84
2021/12/13 11:49:29;;;;;;;12.88;3.60;;;;;;;6.33;100.00;101503.25;5010485;28;20304;-82
2021/12/13 11:52:34;;;;;;;9.30;2.90;;;;;;;6.40;100.00;101508.91;5032892;28;20033;-83
2021/12/13 11:55:37;;;;;;;10.23;3.55;;;;;;;6.33;100.00;101516.59;5025043;28;20043;-83
2021/12/13 11:58:30;;;;;;;6.63;2.47;;;;;;;6.23;100.00;101518.34;5014665;28;20045;-83
2021/12/13 12:01:05;;;;;;;;;;;;;;;6.10;100.00;101507.00;5028498;28;20033;-82
2021/12/13 12:04:07;;;;;;;9.43;2.17;;;;;;;6.03;100.00;101508.47;5046187;28;19974;-82
2021/12/13 12:07:04;;;;;;;17.27;2.35;;;;;;;5.96;100.00;101516.16;5046504;28;20383;-83
2021/12/13 12:10:02;;;;;;;7.40;2.58;;;;;;;5.91;100.00;101507.66;5032553;28;20029;-83